sensor_id;sensor_type;location;lat;lon;timestamp;pressure;altitude;pressure_sealevel;temperature;humidity
80248;BME280;69560;52.206;21.018;2024-03-23T00:55:58;99343.34;;;10.28;63.93
80248;BME280;69560;52.206;21.018;2024-03-23T00:58:24;99337.33;;;10.29;64.29
80248;BME280;69560;52.206;21.018;2024-03-23T01:00:51;99337.25;;;10.29;64.22
80248;BME280;69560;52.206;21.018;2024-03-23T01:03:17;99331.45;;;10.27;64.30
80248;BME280;69560;52.206;21.018;2024-03-23T01:05:44;99330.67;;;10.27;64.26
80248;BME280;69560;52.206;21.018;2024-03-23T01:08:10;99323.63;;;10.29;64.36
80248;BME280;69560;52.206;21.018;2024-03-23T01:10:36;99319.75;;;10.30;64.45
80248;BME280;69560;52.206;21.018;2024-03-23T01:13:03;99327.48;;;10.26;64.34
80248;BME280;69560;52.206;21.018;2024-03-23T01:15:30;99325.59;;;10.24;64.52
80248;BME280;69560;52.206;21.018;2024-03-23T01:17:56;99321.36;;;10.20;64.58
80248;BME280;69560;52.206;21.018;2024-03-23T01:20:22;99320.63;;;10.19;64.71
80248;BME280;69560;52.206;21.018;2024-03-23T01:22:49;99314.84;;;10.15;64.65
80248;BME280;69560;52.206;21.018;2024-03-23T01:25:15;99311.35;;;10.14;64.77
80248;BME280;69560;52.206;21.018;2024-03-23T01:27:42;99302.15;;;10.12;64.88
80248;BME280;69560;52.206;21.018;2024-03-23T01:30:09;99305.04;;;10.10;64.93
80248;BME280;69560;52.206;21.018;2024-03-23T01:32:35;99304.38;;;10.07;65.10
80248;BME280;69560;52.206;21.018;2024-03-23T01:35:02;99304.63;;;10.08;65.18
80248;BME280;69560;52.206;21.018;2024-03-23T01:37:28;99310.44;;;10.10;65.40
80248;BME280;69560;52.206;21.018;2024-03-23T01:39:55;99307.14;;;10.12;65.36
80248;BME280;69560;52.206;21.018;2024-03-23T01:42:21;99309.52;;;10.12;65.51
80248;BME280;69560;52.206;21.018;2024-03-23T01:44:48;99313.48;;;10.13;65.55
80248;BME280;69560;52.206;21.018;2024-03-23T01:47:14;99310.48;;;10.15;65.71
80248;BME280;69560;52.206;21.018;2024-03-23T01:49:41;99300.30;;;10.20;65.85
80248;BME280;69560;52.206;21.018;2024-03-23T01:52:08;99302.77;;;10.23;65.75
80248;BME280;69560;52.206;21.018;2024-03-23T01:54:35;99295.95;;;10.22;65.68
80248;BME280;69560;52.206;21.018;2024-03-23T01:57:02;99289.60;;;10.19;65.69
80248;BME280;69560;52.206;21.018;2024-03-23T01:59:28;99295.30;;;10.20;65.82
80248;BME280;69560;52.206;21.018;2024-03-23T02:01:55;99295.69;;;10.19;65.85
80248;BME280;69560;52.206;21.018;2024-03-23T02:04:21;99291.18;;;10.19;65.94
80248;BME280;69560;52.206;21.018;2024-03-23T02:06:48;99286.12;;;10.19;65.96
80248;BME280;69560;52.206;21.018;2024-03-23T02:09:15;99287.40;;;10.24;66.17
80248;BME280;69560;52.206;21.018;2024-03-23T02:11:41;99280.85;;;10.27;66.11
80248;BME280;69560;52.206;21.018;2024-03-23T02:14:08;99275.39;;;10.25;65.94
80248;BME280;69560;52.206;21.018;2024-03-23T02:16:34;99280.35;;;10.22;66.10
80248;BME280;69560;52.206;21.018;2024-03-23T02:19:01;99285.89;;;10.20;66.09
80248;BME280;69560;52.206;21.018;2024-03-23T02:21:27;99286.59;;;10.18;66.19
80248;BME280;69560;52.206;21.018;2024-03-23T02:23:59;99279.78;;;10.19;66.38
80248;BME280;69560;52.206;21.018;2024-03-23T02:26:26;99275.62;;;10.26;66.47
80248;BME280;69560;52.206;21.018;2024-03-23T02:28:52;99273.27;;;10.29;66.57
80248;BME280;69560;52.206;21.018;2024-03-23T02:31:19;99271.52;;;10.31;66.48
80248;BME280;69560;52.206;21.018;2024-03-23T02:33:49;99268.27;;;10.30;66.36
80248;BME280;69560;52.206;21.018;2024-03-23T02:36:15;99263.37;;;10.29;66.44
80248;BME280;69560;52.206;21.018;2024-03-23T02:38:42;99263.36;;;10.29;66.52
80248;BME280;69560;52.206;21.018;2024-03-23T02:41:08;99262.81;;;10.29;66.57
80248;BME280;69560;52.206;21.018;2024-03-23T02:43:35;99265.11;;;10.28;66.54
80248;BME280;69560;52.206;21.018;2024-03-23T02:46:01;99261.92;;;10.26;66.57
80248;BME280;69560;52.206;21.018;2024-03-23T02:48:29;99262.56;;;10.26;66.80
80248;BME280;69560;52.206;21.018;2024-03-23T02:50:55;99256.21;;;10.25;66.82
80248;BME280;69560;52.206;21.018;2024-03-23T02:53:22;99255.60;;;10.27;66.88
80248;BME280;69560;52.206;21.018;2024-03-23T02:55:48;99254.26;;;10.28;66.89
80248;BME280;69560;52.206;21.018;2024-03-23T02:58:15;99245.88;;;10.31;66.99
80248;BME280;69560;52.206;21.018;2024-03-23T03:00:41;99246.03;;;10.34;66.92
80248;BME280;69560;52.206;21.018;2024-03-23T03:03:07;99235.75;;;10.35;66.98
80248;BME280;69560;52.206;21.018;2024-03-23T03:05:35;99238.98;;;10.34;67.01
80248;BME280;69560;52.206;21.018;2024-03-23T03:08:01;99241.21;;;10.33;67.07
80248;BME280;69560;52.206;21.018;2024-03-23T03:10:28;99234.63;;;10.33;67.17
80248;BME280;69560;52.206;21.018;2024-03-23T03:12:55;99223.70;;;10.34;67.18
80248;BME280;69560;52.206;21.018;2024-03-23T03:15:21;99220.61;;;10.34;67.15
80248;BME280;69560;52.206;21.018;2024-03-23T03:17:48;99217.20;;;10.31;67.06
80248;BME280;69560;52.206;21.018;2024-03-23T03:20:15;99219.80;;;10.27;67.20
80248;BME280;69560;52.206;21.018;2024-03-23T03:22:44;99218.69;;;10.24;67.32
80248;BME280;69560;52.206;21.018;2024-03-23T03:25:10;99224.46;;;10.24;67.32
80248;BME280;69560;52.206;21.018;2024-03-23T03:27:37;99226.98;;;10.22;67.33
80248;BME280;69560;52.206;21.018;2024-03-23T03:30:04;99228.72;;;10.22;67.41
80248;BME280;69560;52.206;21.018;2024-03-23T03:32:32;99226.74;;;10.23;67.56
80248;BME280;69560;52.206;21.018;2024-03-23T03:34:59;99233.00;;;10.22;67.59
80248;BME280;69560;52.206;21.018;2024-03-23T03:37:25;99233.39;;;10.20;67.64
80248;BME280;69560;52.206;21.018;2024-03-23T03:39:52;99230.30;;;10.19;67.72
80248;BME280;69560;52.206;21.018;2024-03-23T03:42:18;99231.01;;;10.19;67.84
80248;BME280;69560;52.206;21.018;2024-03-23T03:44:45;99234.81;;;10.20;67.85
80248;BME280;69560;52.206;21.018;2024-03-23T03:47:11;99235.36;;;10.18;67.87
80248;BME280;69560;52.206;21.018;2024-03-23T03:49:38;99231.96;;;10.19;68.06
80248;BME280;69560;52.206;21.018;2024-03-23T03:52:04;99229.52;;;10.21;68.06
80248;BME280;69560;52.206;21.018;2024-03-23T03:54:31;99229.77;;;10.26;68.14
80248;BME280;69560;52.206;21.018;2024-03-23T03:56:57;99222.82;;;10.28;68.12
80248;BME280;69560;52.206;21.018;2024-03-23T03:59:23;99220.45;;;10.33;68.21
80248;BME280;69560;52.206;21.018;2024-03-23T04:01:50;99215.80;;;10.36;68.27
80248;BME280;69560;52.206;21.018;2024-03-23T04:04:16;99218.65;;;10.38;68.20
80248;BME280;69560;52.206;21.018;2024-03-23T04:06:43;99211.62;;;10.44;68.39
80248;BME280;69560;52.206;21.018;2024-03-23T04:09:10;99209.59;;;10.49;68.50
80248;BME280;69560;52.206;21.018;2024-03-23T04:11:36;99208.56;;;10.53;68.20
80248;BME280;69560;52.206;21.018;2024-03-23T04:14:03;99205.79;;;10.52;68.15
80248;BME280;69560;52.206;21.018;2024-03-23T04:16:34;99209.44;;;10.52;68.18
80248;BME280;69560;52.206;21.018;2024-03-23T04:19:01;99207.05;;;10.50;68.22
80248;BME280;69560;52.206;21.018;2024-03-23T04:21:27;99206.58;;;10.51;68.25
80248;BME280;69560;52.206;21.018;2024-03-23T04:23:54;99207.14;;;10.52;68.24
80248;BME280;69560;52.206;21.018;2024-03-23T04:26:20;99198.66;;;10.51;68.12
80248;BME280;69560;52.206;21.018;2024-03-23T04:28:47;99194.85;;;10.48;68.17
80248;BME280;69560;52.206;21.018;2024-03-23T04:31:13;99188.67;;;10.52;68.25
80248;BME280;69560;52.206;21.018;2024-03-23T04:33:41;99184.41;;;10.56;68.40
80248;BME280;69560;52.206;21.018;2024-03-23T04:36:07;99181.65;;;10.58;68.27
80248;BME280;69560;52.206;21.018;2024-03-23T04:38:34;99181.27;;;10.61;68.31
80248;BME280;69560;52.206;21.018;2024-03-23T04:41:00;99184.67;;;10.61;68.17
80248;BME280;69560;52.206;21.018;2024-03-23T04:43:28;99175.63;;;10.64;68.40
80248;BME280;69560;52.206;21.018;2024-03-23T04:45:54;99177.14;;;10.69;68.38
80248;BME280;69560;52.206;21.018;2024-03-23T04:48:22;99184.02;;;10.66;68.02
80248;BME280;69560;52.206;21.018;2024-03-23T04:50:49;99183.08;;;10.60;67.93
80248;BME280;69560;52.206;21.018;2024-03-23T04:53:16;99180.14;;;10.56;68.04
80248;BME280;69560;52.206;21.018;2024-03-23T04:55:43;99177.12;;;10.56;68.16
80248;BME280;69560;52.206;21.018;2024-03-23T04:58:10;99175.21;;;10.57;68.28
80248;BME280;69560;52.206;21.018;2024-03-23T05:00:36;99161.05;;;10.58;68.32
80248;BME280;69560;52.206;21.018;2024-03-23T05:03:03;99150.04;;;10.61;68.30
80248;BME280;69560;52.206;21.018;2024-03-23T05:05:30;99147.49;;;10.63;68.26
80248;BME280;69560;52.206;21.018;2024-03-23T05:07:57;99155.75;;;10.65;68.19
80248;BME280;69560;52.206;21.018;2024-03-23T05:10:23;99158.91;;;10.63;68.07
80248;BME280;69560;52.206;21.018;2024-03-23T05:12:50;99162.72;;;10.60;68.06
80248;BME280;69560;52.206;21.018;2024-03-23T05:15:16;99162.08;;;10.56;68.05
80248;BME280;69560;52.206;21.018;2024-03-23T05:17:43;99163.48;;;10.49;68.18
80248;BME280;69560;52.206;21.018;2024-03-23T05:20:09;99165.93;;;10.46;68.24
80248;BME280;69560;52.206;21.018;2024-03-23T05:22:36;99165.45;;;10.45;68.30
80248;BME280;69560;52.206;21.018;2024-03-23T05:25:03;99164.58;;;10.44;68.34
80248;BME280;69560;52.206;21.018;2024-03-23T05:27:33;99160.95;;;10.44;68.41
80248;BME280;69560;52.206;21.018;2024-03-23T05:30:00;99151.75;;;10.48;68.60
80248;BME280;69560;52.206;21.018;2024-03-23T05:32:27;99149.54;;;10.50;68.51
80248;BME280;69560;52.206;21.018;2024-03-23T05:34:53;99152.32;;;10.53;68.48
80248;BME280;69560;52.206;21.018;2024-03-23T05:37:23;99149.86;;;10.54;68.50
80248;BME280;69560;52.206;21.018;2024-03-23T05:39:50;99150.83;;;10.57;68.61
80248;BME280;69560;52.206;21.018;2024-03-23T05:42:17;99155.67;;;10.61;68.67
80248;BME280;69560;52.206;21.018;2024-03-23T05:44:47;99146.71;;;10.60;68.46
80248;BME280;69560;52.206;21.018;2024-03-23T05:47:13;99146.31;;;10.55;68.32
80248;BME280;69560;52.206;21.018;2024-03-23T05:49:45;99150.89;;;10.52;68.35
80248;BME280;69560;52.206;21.018;2024-03-23T05:52:13;99150.02;;;10.49;68.34
80248;BME280;69560;52.206;21.018;2024-03-23T05:54:40;99144.85;;;10.46;68.50
80248;BME280;69560;52.206;21.018;2024-03-23T05:57:06;99140.20;;;10.51;68.68
80248;BME280;69560;52.206;21.018;2024-03-23T05:59:36;99141.15;;;10.54;68.73
80248;BME280;69560;52.206;21.018;2024-03-23T06:02:02;99144.00;;;10.57;68.68
80248;BME280;69560;52.206;21.018;2024-03-23T06:04:30;99141.64;;;10.62;68.79
80248;BME280;69560;52.206;21.018;2024-03-23T06:06:56;99129.69;;;10.67;68.73
80248;BME280;69560;52.206;21.018;2024-03-23T06:09:24;99127.30;;;10.68;68.64
80248;BME280;69560;52.206;21.018;2024-03-23T06:11:50;99122.09;;;10.69;68.70
80248;BME280;69560;52.206;21.018;2024-03-23T06:14:17;99121.69;;;10.71;68.76
80248;BME280;69560;52.206;21.018;2024-03-23T06:16:43;99127.47;;;10.76;68.82
80248;BME280;69560;52.206;21.018;2024-03-23T06:19:10;99131.45;;;10.79;68.77
80248;BME280;69560;52.206;21.018;2024-03-23T06:21:36;99133.98;;;10.84;68.71
80248;BME280;69560;52.206;21.018;2024-03-23T06:24:03;99138.17;;;10.83;68.34
80248;BME280;69560;52.206;21.018;2024-03-23T06:26:30;99127.71;;;10.83;68.51
80248;BME280;69560;52.206;21.018;2024-03-23T06:28:56;99124.55;;;10.82;68.47
80248;BME280;69560;52.206;21.018;2024-03-23T06:31:23;99123.44;;;10.83;68.50
80248;BME280;69560;52.206;21.018;2024-03-23T06:33:49;99123.11;;;10.83;68.31
80248;BME280;69560;52.206;21.018;2024-03-23T06:36:16;99127.55;;;10.83;68.37
80248;BME280;69560;52.206;21.018;2024-03-23T06:38:42;99125.49;;;10.82;68.31
80248;BME280;69560;52.206;21.018;2024-03-23T06:41:09;99120.02;;;10.76;68.13
80248;BME280;69560;52.206;21.018;2024-03-23T06:43:36;99117.09;;;10.74;68.32
80248;BME280;69560;52.206;21.018;2024-03-23T06:46:03;99117.40;;;10.72;68.38
80248;BME280;69560;52.206;21.018;2024-03-23T06:48:32;99115.27;;;10.72;68.45
80248;BME280;69560;52.206;21.018;2024-03-23T06:50:59;99113.60;;;10.76;68.68
80248;BME280;69560;52.206;21.018;2024-03-23T06:53:26;99106.39;;;10.79;68.62
80248;BME280;69560;52.206;21.018;2024-03-23T06:55:53;99095.06;;;10.82;68.64
80248;BME280;69560;52.206;21.018;2024-03-23T06:58:21;99094.75;;;10.89;68.64
80248;BME280;69560;52.206;21.018;2024-03-23T07:00:48;99093.39;;;10.90;68.63
80248;BME280;69560;52.206;21.018;2024-03-23T07:03:16;99087.85;;;10.89;68.54
80248;BME280;69560;52.206;21.018;2024-03-23T07:05:43;99094.27;;;10.91;68.56
80248;BME280;69560;52.206;21.018;2024-03-23T07:08:12;99094.10;;;10.95;68.63
80248;BME280;69560;52.206;21.018;2024-03-23T07:10:41;99094.34;;;10.97;68.55
80248;BME280;69560;52.206;21.018;2024-03-23T07:13:08;99095.13;;;11.01;68.64
80248;BME280;69560;52.206;21.018;2024-03-23T07:15:34;99097.73;;;11.00;68.43
80248;BME280;69560;52.206;21.018;2024-03-23T07:18:01;99093.55;;;10.97;68.44
80248;BME280;69560;52.206;21.018;2024-03-23T07:20:28;99092.52;;;10.94;68.44
80248;BME280;69560;52.206;21.018;2024-03-23T07:22:57;99089.75;;;10.89;68.44
80248;BME280;69560;52.206;21.018;2024-03-23T07:25:25;99085.00;;;10.88;68.56
80248;BME280;69560;52.206;21.018;2024-03-23T07:27:54;99087.06;;;10.90;68.60
80248;BME280;69560;52.206;21.018;2024-03-23T07:30:21;99087.29;;;10.87;68.34
80248;BME280;69560;52.206;21.018;2024-03-23T07:32:49;99085.48;;;10.86;68.54
80248;BME280;69560;52.206;21.018;2024-03-23T07:35:17;99081.04;;;10.87;68.66
80248;BME280;69560;52.206;21.018;2024-03-23T07:37:44;99078.81;;;10.88;68.73
80248;BME280;69560;52.206;21.018;2024-03-23T07:40:12;99079.05;;;10.87;68.63
80248;BME280;69560;52.206;21.018;2024-03-23T07:42:39;99079.38;;;10.86;68.81
80248;BME280;69560;52.206;21.018;2024-03-23T07:45:07;99081.03;;;10.91;68.96
80248;BME280;69560;52.206;21.018;2024-03-23T07:47:35;99077.15;;;10.93;68.81
80248;BME280;69560;52.206;21.018;2024-03-23T07:50:02;99067.96;;;10.93;68.81
80248;BME280;69560;52.206;21.018;2024-03-23T07:52:29;99060.91;;;10.90;68.68
80248;BME280;69560;52.206;21.018;2024-03-23T07:54:55;99060.11;;;10.90;68.75
80248;BME280;69560;52.206;21.018;2024-03-23T07:57:22;99059.15;;;10.90;68.83
80248;BME280;69560;52.206;21.018;2024-03-23T07:59:48;99054.41;;;10.91;68.79
80248;BME280;69560;52.206;21.018;2024-03-23T08:02:15;99050.05;;;10.91;68.73
80248;BME280;69560;52.206;21.018;2024-03-23T08:04:41;99049.17;;;10.91;68.74
80248;BME280;69560;52.206;21.018;2024-03-23T08:07:08;99041.15;;;10.94;68.87
80248;BME280;69560;52.206;21.018;2024-03-23T08:09:34;99032.82;;;10.98;68.79
80248;BME280;69560;52.206;21.018;2024-03-23T08:12:00;99035.29;;;10.99;68.68
80248;BME280;69560;52.206;21.018;2024-03-23T08:14:28;99030.52;;;11.01;68.84
80248;BME280;69560;52.206;21.018;2024-03-23T08:16:55;99028.05;;;11.07;68.89
80248;BME280;69560;52.206;21.018;2024-03-23T08:19:21;99027.41;;;11.11;68.94
80248;BME280;69560;52.206;21.018;2024-03-23T08:21:48;99020.18;;;11.16;68.94
80248;BME280;69560;52.206;21.018;2024-03-23T08:24:15;99020.02;;;11.19;68.93
80248;BME280;69560;52.206;21.018;2024-03-23T08:26:42;99020.41;;;11.20;68.76
80248;BME280;69560;52.206;21.018;2024-03-23T08:29:08;99019.14;;;11.21;68.79
80248;BME280;69560;52.206;21.018;2024-03-23T08:31:35;99019.94;;;11.21;68.72
80248;BME280;69560;52.206;21.018;2024-03-23T08:34:01;99013.75;;;11.22;68.63
80248;BME280;69560;52.206;21.018;2024-03-23T08:36:28;99008.27;;;11.23;68.59
80248;BME280;69560;52.206;21.018;2024-03-23T08:38:55;99002.09;;;11.25;68.74
80248;BME280;69560;52.206;21.018;2024-03-23T08:41:21;98993.35;;;11.26;68.71
80248;BME280;69560;52.206;21.018;2024-03-23T08:43:48;98994.27;;;11.36;68.84
80248;BME280;69560;52.206;21.018;2024-03-23T08:46:15;98984.45;;;11.47;68.87
80248;BME280;69560;52.206;21.018;2024-03-23T08:48:46;98978.67;;;11.65;68.99
80248;BME280;69560;52.206;21.018;2024-03-23T08:51:16;98971.43;;;11.86;68.86
80248;BME280;69560;52.206;21.018;2024-03-23T08:53:43;98970.34;;;12.06;68.72
80248;BME280;69560;52.206;21.018;2024-03-23T08:56:11;98967.88;;;12.18;68.59
80248;BME280;69560;52.206;21.018;2024-03-23T08:58:38;98965.59;;;12.26;68.50
80248;BME280;69560;52.206;21.018;2024-03-23T09:03:35;98961.56;;;12.42;68.15
80248;BME280;69560;52.206;21.018;2024-03-23T09:06:12;98961.86;;;12.44;67.99
80248;BME280;69560;52.206;21.018;2024-03-23T09:08:40;98953.55;;;12.41;67.52
80248;BME280;69560;52.206;21.018;2024-03-23T09:11:08;98950.80;;;12.38;67.63
80248;BME280;69560;52.206;21.018;2024-03-23T09:13:36;98945.10;;;12.43;67.77
80248;BME280;69560;52.206;21.018;2024-03-23T09:16:04;98941.82;;;12.46;67.54
80248;BME280;69560;52.206;21.018;2024-03-23T09:18:33;98932.88;;;12.52;67.57
80248;BME280;69560;52.206;21.018;2024-03-23T09:21:00;98925.23;;;12.62;67.73
80248;BME280;69560;52.206;21.018;2024-03-23T09:23:26;98918.19;;;13.09;68.29
80248;BME280;69560;52.206;21.018;2024-03-23T09:25:52;98906.85;;;14.18;68.92
80248;BME280;69560;52.206;21.018;2024-03-23T09:28:19;98898.30;;;15.43;68.43
80248;BME280;69560;52.206;21.018;2024-03-23T09:30:46;98897.66;;;16.13;67.01
80248;BME280;69560;52.206;21.018;2024-03-23T09:33:13;98897.84;;;16.37;65.15
80248;BME280;69560;52.206;21.018;2024-03-23T09:35:41;98891.81;;;16.20;64.15
80248;BME280;69560;52.206;21.018;2024-03-23T09:38:08;98893.00;;;15.91;63.02
80248;BME280;69560;52.206;21.018;2024-03-23T09:40:40;98894.14;;;15.62;62.80
80248;BME280;69560;52.206;21.018;2024-03-23T09:43:09;98888.98;;;15.38;62.86
80248;BME280;69560;52.206;21.018;2024-03-23T09:45:38;98889.35;;;15.13;62.45
80248;BME280;69560;52.206;21.018;2024-03-23T09:48:07;98886.77;;;14.86;62.41
80248;BME280;69560;52.206;21.018;2024-03-23T09:50:39;98883.34;;;14.61;62.41
80248;BME280;69560;52.206;21.018;2024-03-23T09:53:07;98876.56;;;14.44;62.73
80248;BME280;69560;52.206;21.018;2024-03-23T09:55:34;98868.40;;;14.38;62.82
80248;BME280;69560;52.206;21.018;2024-03-23T09:58:04;98860.63;;;14.35;63.14
80248;BME280;69560;52.206;21.018;2024-03-23T10:00:35;98857.23;;;14.39;63.29
80248;BME280;69560;52.206;21.018;2024-03-23T10:03:02;98857.08;;;14.42;63.24
80248;BME280;69560;52.206;21.018;2024-03-23T10:05:29;98851.34;;;14.55;63.28
80248;BME280;69560;52.206;21.018;2024-03-23T10:07:57;98842.25;;;14.87;63.65
80248;BME280;69560;52.206;21.018;2024-03-23T10:10:27;98833.85;;;15.12;63.50
80248;BME280;69560;52.206;21.018;2024-03-23T10:12:53;98824.16;;;15.89;63.79
80248;BME280;69560;52.206;21.018;2024-03-23T10:15:22;98810.66;;;16.62;63.16
80248;BME280;69560;52.206;21.018;2024-03-23T10:17:50;98796.58;;;18.10;63.11
80248;BME280;69560;52.206;21.018;2024-03-23T10:20:23;98787.89;;;19.56;61.97
80248;BME280;69560;52.206;21.018;2024-03-23T10:22:50;98780.60;;;20.15;60.13
80248;BME280;69560;52.206;21.018;2024-03-23T10:25:23;98778.66;;;21.43;60.39
80248;BME280;69560;52.206;21.018;2024-03-23T10:27:59;98777.79;;;23.47;58.62
80248;BME280;69560;52.206;21.018;2024-03-23T10:30:27;98770.83;;;25.44;56.52
80248;BME280;69560;52.206;21.018;2024-03-23T10:33:10;98755.15;;;26.55;54.23
80248;BME280;69560;52.206;21.018;2024-03-23T10:35:38;98752.35;;;26.53;52.25
80248;BME280;69560;52.206;21.018;2024-03-23T10:38:05;98750.60;;;27.77;51.81
80248;BME280;69560;52.206;21.018;2024-03-23T10:40:36;98751.64;;;29.18;50.37
80248;BME280;69560;52.206;21.018;2024-03-23T10:43:03;98743.86;;;30.85;48.63
80248;BME280;69560;52.206;21.018;2024-03-23T10:45:30;98734.50;;;31.38;45.48
80248;BME280;69560;52.206;21.018;2024-03-23T10:47:57;98736.48;;;30.24;42.92
80248;BME280;69560;52.206;21.018;2024-03-23T10:50:24;98723.02;;;30.52;43.22
80248;BME280;69560;52.206;21.018;2024-03-23T10:52:52;98727.17;;;31.18;41.41
80248;BME280;69560;52.206;21.018;2024-03-23T10:55:20;98730.09;;;31.60;40.57
80248;BME280;69560;52.206;21.018;2024-03-23T10:57:53;98720.77;;;32.35;39.88
80248;BME280;69560;52.206;21.018;2024-03-23T11:00:20;98712.50;;;32.76;39.32
80248;BME280;69560;52.206;21.018;2024-03-23T11:02:49;98703.30;;;32.19;38.29
80248;BME280;69560;52.206;21.018;2024-03-23T11:07:52;98687.23;;;34.14;37.44
80248;BME280;69560;52.206;21.018;2024-03-23T11:10:30;98684.66;;;34.55;35.47
80248;BME280;69560;52.206;21.018;2024-03-23T11:12:57;98683.11;;;34.19;35.00
80248;BME280;69560;52.206;21.018;2024-03-23T11:15:24;98681.29;;;34.76;35.80
80248;BME280;69560;52.206;21.018;2024-03-23T11:18:09;98683.20;;;34.51;35.19
80248;BME280;69560;52.206;21.018;2024-03-23T11:20:35;98681.98;;;32.79;33.19
80248;BME280;69560;52.206;21.018;2024-03-23T11:23:02;98675.42;;;31.26;32.54
80248;BME280;69560;52.206;21.018;2024-03-23T11:25:29;98669.48;;;30.19;33.20
80248;BME280;69560;52.206;21.018;2024-03-23T11:27:58;98669.92;;;29.46;33.67
80248;BME280;69560;52.206;21.018;2024-03-23T11:30:26;98654.13;;;28.76;33.34
80248;BME280;69560;52.206;21.018;2024-03-23T11:32:57;98651.36;;;28.63;33.03
80248;BME280;69560;52.206;21.018;2024-03-23T11:35:33;98647.31;;;29.44;33.21
80248;BME280;69560;52.206;21.018;2024-03-23T11:38:20;98640.36;;;30.46;33.99
80248;BME280;69560;52.206;21.018;2024-03-23T11:40:48;98642.45;;;30.60;32.53
80248;BME280;69560;52.206;21.018;2024-03-23T11:43:20;98637.37;;;29.62;32.74
80248;BME280;69560;52.206;21.018;2024-03-23T11:45:49;98629.55;;;29.97;32.96
80248;BME280;69560;52.206;21.018;2024-03-23T11:48:20;98619.90;;;30.92;32.67
80248;BME280;69560;52.206;21.018;2024-03-23T11:50:50;98619.89;;;30.54;31.23
80248;BME280;69560;52.206;21.018;2024-03-23T11:55:52;98606.98;;;27.26;30.18
80248;BME280;69560;52.206;21.018;2024-03-23T11:58:20;98598.88;;;25.88;31.14
80248;BME280;69560;52.206;21.018;2024-03-23T12:01:03;98595.05;;;26.47;33.50
80248;BME280;69560;52.206;21.018;2024-03-23T12:03:31;98589.60;;;26.89;32.77
80248;BME280;69560;52.206;21.018;2024-03-23T12:06:04;98576.29;;;26.09;33.11
80248;BME280;69560;52.206;21.018;2024-03-23T12:08:32;98588.73;;;25.50;32.78
80248;BME280;69560;52.206;21.018;2024-03-23T12:11:13;98574.86;;;24.89;33.15
80248;BME280;69560;52.206;21.018;2024-03-23T12:13:45;98569.71;;;24.46;33.43
80248;BME280;69560;52.206;21.018;2024-03-23T12:16:19;98577.61;;;23.73;33.67
80248;BME280;69560;52.206;21.018;2024-03-23T12:18:49;98568.89;;;23.80;34.17
80248;BME280;69560;52.206;21.018;2024-03-23T12:21:17;98565.27;;;23.69;34.26
80248;BME280;69560;52.206;21.018;2024-03-23T12:23:44;98565.61;;;23.02;34.42
80248;BME280;69560;52.206;21.018;2024-03-23T12:26:13;98558.54;;;23.07;35.27
80248;BME280;69560;52.206;21.018;2024-03-23T12:28:39;98554.72;;;23.05;35.37
80248;BME280;69560;52.206;21.018;2024-03-23T12:31:06;98542.64;;;22.39;35.24
80248;BME280;69560;52.206;21.018;2024-03-23T12:33:32;98543.52;;;21.86;35.66
80248;BME280;69560;52.206;21.018;2024-03-23T12:35:59;98540.97;;;21.47;36.01
80248;BME280;69560;52.206;21.018;2024-03-23T12:38:25;98533.22;;;20.99;36.14
80248;BME280;69560;52.206;21.018;2024-03-23T12:40:52;98531.70;;;20.52;36.26
80248;BME280;69560;52.206;21.018;2024-03-23T12:43:18;98527.38;;;20.04;36.76
80248;BME280;69560;52.206;21.018;2024-03-23T12:45:48;98525.14;;;19.62;37.09
80248;BME280;69560;52.206;21.018;2024-03-23T12:48:16;98519.89;;;19.23;37.56
80248;BME280;69560;52.206;21.018;2024-03-23T12:50:42;98517.73;;;18.90;38.08
80248;BME280;69560;52.206;21.018;2024-03-23T12:53:09;98516.58;;;18.69;38.69
80248;BME280;69560;52.206;21.018;2024-03-23T12:55:35;98509.59;;;18.52;39.16
80248;BME280;69560;52.206;21.018;2024-03-23T12:58:02;98501.92;;;18.37;39.44
80248;BME280;69560;52.206;21.018;2024-03-23T13:00:29;98498.61;;;18.23;39.66
80248;BME280;69560;52.206;21.018;2024-03-23T13:02:55;98492.00;;;18.11;40.17
80248;BME280;69560;52.206;21.018;2024-03-23T13:05:22;98490.95;;;17.99;40.21
80248;BME280;69560;52.206;21.018;2024-03-23T13:07:48;98484.68;;;17.85;40.44
80248;BME280;69560;52.206;21.018;2024-03-23T13:10:15;98486.25;;;17.73;40.61
80248;BME280;69560;52.206;21.018;2024-03-23T13:12:42;98477.40;;;17.64;40.82
80248;BME280;69560;52.206;21.018;2024-03-23T13:15:09;98468.13;;;17.55;41.16
80248;BME280;69560;52.206;21.018;2024-03-23T13:17:36;98459.33;;;17.45;41.63
80248;BME280;69560;52.206;21.018;2024-03-23T13:20:03;98455.20;;;17.35;41.56
80248;BME280;69560;52.206;21.018;2024-03-23T13:22:30;98448.58;;;17.23;41.67
80248;BME280;69560;52.206;21.018;2024-03-23T13:24:57;98446.70;;;17.11;41.91
80248;BME280;69560;52.206;21.018;2024-03-23T13:27:23;98442.81;;;17.06;42.20
80248;BME280;69560;52.206;21.018;2024-03-23T13:29:49;98436.76;;;17.05;42.46
80248;BME280;69560;52.206;21.018;2024-03-23T13:32:16;98430.68;;;17.00;42.59
80248;BME280;69560;52.206;21.018;2024-03-23T13:34:43;98418.44;;;16.94;42.46
80248;BME280;69560;52.206;21.018;2024-03-23T13:37:09;98411.45;;;16.90;42.56
80248;BME280;69560;52.206;21.018;2024-03-23T13:39:36;98410.42;;;16.87;42.67
80248;BME280;69560;52.206;21.018;2024-03-23T13:42:03;98406.75;;;16.82;42.73
80248;BME280;69560;52.206;21.018;2024-03-23T13:44:31;98395.30;;;16.78;42.66
80248;BME280;69560;52.206;21.018;2024-03-23T13:46:58;98388.05;;;16.75;42.67
80248;BME280;69560;52.206;21.018;2024-03-23T13:49:30;98392.73;;;16.72;42.76
80248;BME280;69560;52.206;21.018;2024-03-23T13:51:59;98393.36;;;16.67;42.87
80248;BME280;69560;52.206;21.018;2024-03-23T13:54:26;98385.77;;;16.65;43.11